createdAt,value
2022-11-14T00:00:10.858Z,97194.97
2022-11-14T00:02:37.782Z,97192.47
2022-11-14T00:05:07.138Z,97183.75
2022-11-14T00:07:34.409Z,97178.63
2022-11-14T00:10:00.889Z,97181.69
2022-11-14T00:12:27.484Z,97188.59
2022-11-14T00:14:55.899Z,97177.00
2022-11-14T00:17:25.011Z,97149.72
2022-11-14T00:19:51.475Z,97154.34
2022-11-14T00:22:17.979Z,97147.06
2022-11-14T00:24:46.249Z,97132.28
2022-11-14T00:27:12.955Z,97131.34
2022-11-14T00:29:39.394Z,97123.88
2022-11-14T00:32:05.946Z,97093.34
2022-11-14T00:34:32.427Z,97094.66
2022-11-14T00:36:58.973Z,97108.53
2022-11-14T00:39:25.538Z,97089.28
2022-11-14T00:41:51.965Z,97082.97
2022-11-14T00:44:18.400Z,97074.44
2022-11-14T00:46:44.890Z,97064.09
2022-11-14T00:49:11.312Z,97062.75
2022-11-14T00:51:37.785Z,97063.28
2022-11-14T00:54:04.291Z,97048.84
2022-11-14T00:56:30.749Z,97027.47
2022-11-14T00:58:57.343Z,97045.84
2022-11-14T01:01:23.806Z,97037.31
2022-11-14T01:03:54.184Z,97017.94
2022-11-14T01:06:20.803Z,97030.91
2022-11-14T01:08:47.389Z,97033.25
2022-11-14T01:11:17.787Z,97014.69
2022-11-14T01:13:44.323Z,97020.47
2022-11-14T01:16:10.818Z,97019.81
2022-11-14T01:18:38.181Z,97003.13
2022-11-14T01:21:05.601Z,96990.69
2022-11-14T01:23:32.275Z,97001.88
2022-11-14T01:26:06.897Z,96994.72
2022-11-14T01:28:33.386Z,96998.28
2022-11-14T01:31:13.531Z,97017.78
2022-11-14T01:33:40.078Z,96992.03
2022-11-14T01:36:07.203Z,97009.06
2022-11-14T01:38:33.640Z,97007.25
2022-11-14T01:41:01.277Z,96994.72
2022-11-14T01:43:29.889Z,97005.91
2022-11-14T01:46:01.349Z,97002.34
2022-11-14T01:48:33.926Z,96986.00
2022-11-14T01:51:08.639Z,96992.25
2022-11-14T01:53:37.097Z,96991.13
2022-11-14T01:56:05.248Z,96974.13
2022-11-14T01:58:34.571Z,96975.66
2022-11-14T02:01:01.218Z,96975.88
2022-11-14T02:03:28.079Z,96968.72
2022-11-14T02:05:54.575Z,96959.28
2022-11-14T02:08:21.891Z,96962.31
2022-11-14T02:10:50.679Z,96932.94
2022-11-14T02:13:17.173Z,96940.91
2022-11-14T02:15:43.677Z,96959.75
2022-11-14T02:18:10.099Z,96932.63
2022-11-14T02:20:38.242Z,96951.69
2022-11-14T02:23:06.853Z,96951.22
2022-11-14T02:25:33.320Z,96937.09
2022-11-14T02:28:02.621Z,96934.88
2022-11-14T02:30:29.082Z,96941.13
2022-11-14T02:33:11.720Z,96928.13
2022-11-14T02:35:40.589Z,96928.81
2022-11-14T02:38:07.058Z,96935.19
2022-11-14T02:40:33.623Z,96911.09
2022-11-14T02:43:00.891Z,96915.22
2022-11-14T02:45:27.417Z,96919.84
2022-11-14T02:47:53.819Z,96906.38
2022-11-14T02:50:20.449Z,96895.63
2022-11-14T02:52:46.885Z,96905.91
2022-11-14T02:55:13.443Z,96895.63
2022-11-14T02:57:39.838Z,96892.00
2022-11-14T03:00:11.672Z,96885.28
2022-11-14T03:02:41.023Z,96874.28
2022-11-14T03:05:08.051Z,96877.88
2022-11-14T03:07:34.599Z,96883.28
2022-11-14T03:10:01.151Z,96867.88
2022-11-14T03:12:27.702Z,96863.06
2022-11-14T03:14:54.097Z,96867.31
2022-11-14T03:17:20.542Z,96858.34
2022-11-14T03:19:46.945Z,96836.97
2022-11-14T03:22:13.483Z,96854.19
2022-11-14T03:24:40.317Z,96850.94
2022-11-14T03:27:06.783Z,96840.00
2022-11-14T03:29:33.289Z,96849.59
2022-11-14T03:31:59.727Z,96835.69
2022-11-14T03:34:28.213Z,96831.38
2022-11-14T03:36:54.666Z,96846.13
2022-11-14T03:39:23.548Z,96840.63
2022-11-14T03:41:50.855Z,96827.22
2022-11-14T03:44:17.256Z,96839.94
2022-11-14T03:46:43.687Z,96830.91
2022-11-14T03:49:10.180Z,96813.63
2022-11-14T03:51:36.865Z,96816.34
2022-11-14T03:54:03.317Z,96808.03
2022-11-14T03:56:29.844Z,96802.91
2022-11-14T03:58:56.359Z,96810.50
2022-11-14T04:01:22.893Z,96814.53
2022-11-14T04:03:49.602Z,96800.66
2022-11-14T04:06:16.022Z,96800.28
2022-11-14T04:08:42.570Z,96806.91
2022-11-14T04:11:09.160Z,96791.47
2022-11-14T04:13:35.647Z,96803.53
2022-11-14T04:16:02.270Z,96799.69
2022-11-14T04:18:29.425Z,96777.41
2022-11-14T04:20:56.555Z,96794.31
2022-11-14T04:23:23.092Z,96794.31
2022-11-14T04:25:49.564Z,96776.28
2022-11-14T04:28:16.166Z,96792.06
2022-11-14T04:30:42.663Z,96782.84
2022-11-14T04:33:09.189Z,96777.16
2022-11-14T04:35:35.653Z,96785.91
2022-11-14T04:38:02.397Z,96788.50
2022-11-14T04:40:28.985Z,96769.31
2022-11-14T04:42:56.178Z,96780.41
2022-11-14T04:45:22.701Z,96785.00
2022-11-14T04:47:49.674Z,96767.75
2022-11-14T04:50:16.170Z,96779.72
2022-11-14T04:52:42.604Z,96771.19
2022-11-14T04:55:09.188Z,96746.41
2022-11-14T04:57:35.594Z,96761.38
2022-11-14T05:00:02.109Z,96766.69
2022-11-14T05:02:30.615Z,96747.97
2022-11-14T05:04:57.067Z,96764.19
2022-11-14T05:07:23.574Z,96772.78
2022-11-14T05:09:50.046Z,96751.78
2022-11-14T05:12:16.530Z,96758.88
2022-11-14T05:14:43.022Z,96755.75
2022-11-14T05:17:09.420Z,96722.75
2022-11-14T05:19:35.892Z,96737.00
2022-11-14T05:22:02.381Z,96748.91
2022-11-14T05:24:28.857Z,96725.19
2022-11-14T05:26:57.647Z,96737.59
2022-11-14T05:29:24.138Z,96726.41
2022-11-14T05:31:50.623Z,96718.41
2022-11-14T05:34:17.119Z,96722.56
2022-11-14T05:36:43.576Z,96730.22
2022-11-14T05:39:10.039Z,96717.63
2022-11-14T05:41:38.631Z,96728.81
2022-11-14T05:44:05.250Z,96741.00
2022-11-14T05:46:31.730Z,96723.03
2022-11-14T05:48:58.260Z,96741.84
2022-11-14T05:51:24.685Z,96739.44
2022-11-14T05:53:51.151Z,96726.06
2022-11-14T05:56:17.683Z,96751.84
2022-11-14T05:58:44.147Z,96745.28
2022-11-14T06:01:12.289Z,96728.41
2022-11-14T06:03:40.989Z,96746.81
2022-11-14T06:06:10.311Z,96736.41
2022-11-14T06:08:36.907Z,96729.88
2022-11-14T06:11:09.686Z,96739.16
2022-11-14T06:13:36.419Z,96725.88
2022-11-14T06:16:04.180Z,96706.91
2022-11-14T06:18:31.147Z,96726.66
2022-11-14T06:21:01.259Z,96709.91
2022-11-14T06:23:28.150Z,96707.88
2022-11-14T06:26:01.271Z,96710.59
2022-11-14T06:28:27.994Z,96716.66
2022-11-14T06:31:02.012Z,96695.44
2022-11-14T06:33:30.582Z,96697.78
2022-11-14T06:35:58.036Z,96706.75
2022-11-14T06:38:26.846Z,96704.16
2022-11-14T06:41:01.459Z,96689.53
2022-11-14T06:43:27.968Z,96703.78
2022-11-14T06:45:54.920Z,96704.50
2022-11-14T06:48:21.346Z,96697.09
2022-11-14T06:50:54.543Z,96702.59
2022-11-14T06:53:21.035Z,96701.97
2022-11-14T06:56:00.364Z,96708.50
2022-11-14T06:58:28.086Z,96687.78
2022-11-14T07:00:55.159Z,96691.03
2022-11-14T07:03:22.224Z,96692.50
2022-11-14T07:05:50.847Z,96687.69
2022-11-14T07:08:30.847Z,96674.38
2022-11-14T07:11:03.802Z,96689.53
2022-11-14T07:13:31.319Z,96683.88
2022-11-14T07:15:58.177Z,96676.91
2022-11-14T07:18:24.731Z,96682.81
2022-11-14T07:20:56.967Z,96684.22
2022-11-14T07:23:23.418Z,96664.03
2022-11-14T07:25:49.899Z,96662.19
2022-11-14T07:28:18.558Z,96674.94
2022-11-14T07:30:45.026Z,96668.81
2022-11-14T07:33:13.685Z,96659.22
2022-11-14T07:35:40.182Z,96667.84
2022-11-14T07:38:06.635Z,96660.38
2022-11-14T07:40:33.186Z,96650.56
2022-11-14T07:43:01.003Z,96632.31
2022-11-14T07:45:28.361Z,96645.06
2022-11-14T07:47:58.187Z,96636.63
2022-11-14T07:50:25.471Z,96621.63
2022-11-14T07:52:52.330Z,96625.66
2022-11-14T07:55:22.133Z,96644.38
2022-11-14T07:57:52.245Z,96626.16
2022-11-14T08:00:18.921Z,96612.47
2022-11-14T08:02:46.082Z,96623.03
2022-11-14T08:05:12.523Z,96623.03
2022-11-14T08:07:39.037Z,96609.56
2022-11-14T08:10:05.802Z,96604.72
2022-11-14T08:12:32.291Z,96606.91
2022-11-14T08:14:58.726Z,96598.84
2022-11-14T08:17:25.159Z,96591.81
2022-11-14T08:19:51.634Z,96589.41
2022-11-14T08:22:18.028Z,96585.66
2022-11-14T08:24:44.464Z,96572.09
2022-11-14T08:27:10.856Z,96574.91
2022-11-14T08:29:37.288Z,96568.81
2022-11-14T08:32:03.778Z,96557.16
2022-11-14T08:34:30.426Z,96566.25
2022-11-14T08:36:57.907Z,96565.13
2022-11-14T08:39:24.480Z,96547.38
2022-11-14T08:41:51.635Z,96559.84
2022-11-14T08:44:18.782Z,96556.69
2022-11-14T08:46:45.223Z,96540.75
2022-11-14T08:49:13.666Z,96535.44
2022-11-14T08:51:40.271Z,96545.22
2022-11-14T08:54:07.030Z,96538.69
2022-11-14T08:56:33.467Z,96527.88
2022-11-14T08:59:02.677Z,96533.47
2022-11-14T09:01:29.739Z,96532.66
2022-11-14T09:03:59.855Z,96513.38
2022-11-14T09:06:26.587Z,96520.50
2022-11-14T09:08:53.122Z,96516.25
2022-11-14T09:11:21.937Z,96509.53
2022-11-14T09:13:48.325Z,96502.69
2022-11-14T09:16:14.825Z,96502.16
2022-11-14T09:18:41.262Z,96501.03
2022-11-14T09:21:08.840Z,96480.19
2022-11-14T09:23:35.841Z,96466.19
2022-11-14T09:26:06.177Z,96454.00
2022-11-14T09:28:32.626Z,96469.91
2022-11-14T09:31:03.156Z,96465.47
2022-11-14T09:33:29.996Z,96465.47
2022-11-14T09:35:57.492Z,96467.03
2022-11-14T09:38:23.948Z,96462.66
2022-11-14T09:41:03.684Z,96476.41
2022-11-14T09:43:34.959Z,96477.28
2022-11-14T09:46:02.663Z,96485.03
2022-11-14T09:48:30.410Z,96495.78
2022-11-14T09:51:06.715Z,96495.56
2022-11-14T09:53:37.055Z,96520.41
2022-11-14T09:56:03.562Z,96527.53
2022-11-14T09:58:30.262Z,96539.41
2022-11-14T10:01:19.837Z,96552.19
2022-11-14T10:04:09.356Z,96560.03
2022-11-14T10:06:43.765Z,96574.59
2022-11-14T10:09:30.120Z,96573.25
2022-11-14T10:11:57.110Z,96594.63
2022-11-14T10:14:32.469Z,96594.84
2022-11-14T10:17:14.646Z,96608.22
2022-11-14T10:19:50.042Z,96608.22
2022-11-14T10:22:24.159Z,96610.91
2022-11-14T10:25:03.706Z,96632.78
2022-11-14T10:27:33.293Z,96624.88
2022-11-14T10:30:09.991Z,96650.41
2022-11-14T10:32:45.784Z,96656.72
2022-11-14T10:35:15.319Z,96657.44
2022-11-14T10:37:41.902Z,96659.91
2022-11-14T10:40:19.118Z,96663.69
2022-11-14T10:42:48.541Z,96637.41
2022-11-14T10:45:23.222Z,96649.53
2022-11-14T10:48:01.378Z,96647.88
2022-11-14T10:50:31.972Z,96644.53
2022-11-14T10:53:01.298Z,96645.19
2022-11-14T10:55:57.233Z,96663.69
2022-11-14T10:58:15.036Z,96658.63
2022-11-14T11:00:41.488Z,96637.63
2022-11-14T11:03:08.051Z,96655.16
2022-11-14T11:05:45.226Z,96654.25
2022-11-14T11:08:48.779Z,96644.91
2022-11-14T11:11:33.374Z,96649.38
2022-11-14T11:14:01.060Z,96652.72
2022-11-14T11:16:28.762Z,96639.84
2022-11-14T11:19:13.251Z,96634.09
2022-11-14T11:21:57.838Z,96653.88
2022-11-14T11:24:31.826Z,96648.53
2022-11-14T11:27:27.466Z,96631.41
2022-11-14T11:30:17.388Z,96647.72
2022-11-14T11:32:43.792Z,96637.31
2022-11-14T11:35:12.426Z,96632.09
2022-11-14T11:38:05.364Z,96634.97
2022-11-14T11:40:32.954Z,96628.19
2022-11-14T11:43:37.147Z,96620.44
2022-11-14T11:45:54.030Z,96645.66
2022-11-14T11:48:21.787Z,96627.16
2022-11-14T11:50:49.502Z,96612.34
2022-11-14T11:53:18.772Z,96621.06
2022-11-14T11:55:46.952Z,96620.63
2022-11-14T11:58:24.522Z,96609.59
2022-11-14T12:00:52.216Z,96628.94
2022-11-14T12:03:21.824Z,96622.19
2022-11-14T12:05:54.371Z,96611.81
2022-11-14T12:08:23.827Z,96615.81
2022-11-14T12:10:52.752Z,96599.75
2022-11-14T12:13:31.597Z,96593.31
2022-11-14T12:15:58.231Z,96615.53
2022-11-14T12:18:24.682Z,96612.47
2022-11-14T12:21:05.633Z,96596.50
2022-11-14T12:23:52.290Z,96602.44
2022-11-14T12:26:38.735Z,96611.31
2022-11-14T12:29:05.135Z,96609.13
2022-11-14T12:31:34.151Z,96619.28
2022-11-14T12:34:03.300Z,96608.97
2022-11-14T12:36:31.427Z,96600.59
2022-11-14T12:38:58.508Z,96614.56
2022-11-14T12:41:31.057Z,96618.78
2022-11-14T12:44:16.089Z,96605.50
2022-11-14T12:47:01.166Z,96622.22
2022-11-14T12:49:43.072Z,96622.94
2022-11-14T12:52:29.409Z,96612.81
2022-11-14T12:54:55.842Z,96622.94
2022-11-14T12:57:45.808Z,96621.38
2022-11-14T13:00:12.648Z,96611.59
2022-11-14T13:02:48.946Z,96612.84
2022-11-14T13:05:29.159Z,96616.53
2022-11-14T13:08:06.741Z,96583.69
2022-11-14T13:10:42.201Z,96599.63
2022-11-14T13:13:31.990Z,96601.38
2022-11-14T13:16:18.424Z,96586.00
2022-11-14T13:19:21.354Z,96589.13
2022-11-14T13:22:06.454Z,96565.09
2022-11-14T13:24:51.818Z,96580.75
2022-11-14T13:28:00.354Z,96582.72
2022-11-14T13:30:18.324Z,96566.75
2022-11-14T13:32:44.785Z,96590.63
2022-11-14T13:35:11.149Z,96587.16
2022-11-14T13:37:57.707Z,96580.53
2022-11-14T13:40:38.322Z,96571.47
2022-11-14T13:43:07.777Z,96555.81
2022-11-14T13:46:00.327Z,96557.47
2022-11-14T13:48:26.753Z,96559.41
2022-11-14T13:50:56.375Z,96562.59
2022-11-14T13:53:24.864Z,96568.13
2022-11-14T13:55:53.989Z,96557.34
2022-11-14T13:58:28.407Z,96567.38
2022-11-14T14:01:13.334Z,96569.41
2022-11-14T14:03:45.698Z,96570.63
2022-11-14T14:06:32.419Z,96570.69
2022-11-14T14:09:17.106Z,96576.03
2022-11-14T14:12:02.076Z,96585.34
2022-11-14T14:14:35.172Z,96582.28
2022-11-14T14:17:13.071Z,96595.34
2022-11-14T14:20:15.527Z,96602.31
2022-11-14T14:23:02.663Z,96615.41
2022-11-14T14:25:40.162Z,96639.50
2022-11-14T14:28:15.281Z,96660.97
2022-11-14T14:30:41.738Z,96661.56
2022-11-14T14:33:08.104Z,96673.50
2022-11-14T14:35:40.736Z,96680.75
2022-11-14T14:38:23.424Z,96686.44
2022-11-14T14:40:56.587Z,96691.28
2022-11-14T14:43:25.535Z,96697.84
2022-11-14T14:45:53.289Z,96701.66
2022-11-14T14:48:23.845Z,96694.00
2022-11-14T14:50:51.443Z,96700.19
2022-11-14T14:53:22.330Z,96697.09
2022-11-14T14:55:53.220Z,96704.06
2022-11-14T14:58:22.870Z,96699.50
2022-11-14T15:01:00.487Z,96689.56
2022-11-14T15:03:35.508Z,96695.69
2022-11-14T15:06:07.786Z,96700.22
2022-11-14T15:08:38.671Z,96694.47
2022-11-14T15:11:06.054Z,96683.47
2022-11-14T15:13:33.978Z,96683.88
2022-11-14T15:16:00.549Z,96683.88
2022-11-14T15:18:28.676Z,96680.47
2022-11-14T15:21:13.983Z,96687.03
2022-11-14T15:23:40.565Z,96693.41
2022-11-14T15:26:14.955Z,96691.84
2022-11-14T15:28:41.438Z,96702.66
2022-11-14T15:31:15.511Z,96694.19
2022-11-14T15:33:41.939Z,96695.19
2022-11-14T15:36:10.278Z,96700.03
2022-11-14T15:38:43.886Z,96693.41
2022-11-14T15:41:22.261Z,96683.47
2022-11-14T15:43:51.086Z,96683.91
2022-11-14T15:46:28.062Z,96683.03
2022-11-14T15:48:54.742Z,96679.28
2022-11-14T15:51:39.998Z,96673.97
2022-11-14T15:54:18.954Z,96672.44
2022-11-14T15:56:47.478Z,96672.41
2022-11-14T15:59:13.871Z,96675.88
2022-11-14T16:01:40.489Z,96676.59
2022-11-14T16:04:09.629Z,96662.06
2022-11-14T16:06:36.154Z,96661.00
2022-11-14T16:09:02.606Z,96650.63
2022-11-14T16:11:29.074Z,96643.66
2022-11-14T16:13:55.477Z,96641.66
2022-11-14T16:16:22.364Z,96640.19
2022-11-14T16:18:48.805Z,96644.81
2022-11-14T16:21:18.204Z,96658.91
2022-11-14T16:23:45.254Z,96660.66
2022-11-14T16:26:11.650Z,96674.38
2022-11-14T16:28:38.040Z,96674.31
2022-11-14T16:31:12.903Z,96660.31
2022-11-14T16:33:39.416Z,96661.59
2022-11-14T16:36:06.318Z,96685.81
2022-11-14T16:38:32.743Z,96655.16
2022-11-14T16:41:03.046Z,96631.94
2022-11-14T16:43:29.849Z,96639.66
2022-11-14T16:45:56.577Z,96631.41
2022-11-14T16:48:22.988Z,96599.69
2022-11-14T16:50:52.890Z,96593.66
2022-11-14T16:53:24.839Z,96582.94
2022-11-14T16:55:51.227Z,96561.50
2022-11-14T16:58:18.086Z,96535.75
2022-11-14T17:00:44.709Z,96539.28
2022-11-14T17:03:11.118Z,96525.22
2022-11-14T17:05:44.221Z,96520.50
2022-11-14T17:08:10.810Z,96513.72
2022-11-14T17:10:48.882Z,96501.66
2022-11-14T17:13:24.004Z,96499.38
2022-11-14T17:15:53.035Z,96481.47
2022-11-14T17:18:19.412Z,96474.84
2022-11-14T17:20:45.820Z,96478.19
2022-11-14T17:23:12.410Z,96466.78
2022-11-14T17:25:38.789Z,96478.84
2022-11-14T17:28:05.198Z,96455.13
2022-11-14T17:30:31.577Z,96462.66
2022-11-14T17:32:58.155Z,96454.16
2022-11-14T17:35:24.597Z,96446.63
2022-11-14T17:37:52.298Z,96453.13
2022-11-14T17:40:22.435Z,96438.41
2022-11-14T17:42:49.062Z,96452.66
2022-11-14T17:45:15.559Z,96445.44
2022-11-14T17:47:42.109Z,96437.75
2022-11-14T17:50:09.278Z,96439.81
2022-11-14T17:52:35.879Z,96427.75
2022-11-14T17:55:02.354Z,96425.91
2022-11-14T17:57:28.888Z,96419.13
2022-11-14T17:59:55.275Z,96409.19
2022-11-14T18:02:21.688Z,96408.88
2022-11-14T18:04:48.880Z,96378.47
2022-11-14T18:07:15.787Z,96388.91
2022-11-14T18:09:42.256Z,96371.25
2022-11-14T18:12:08.718Z,96355.38
2022-11-14T18:14:35.684Z,96367.34
2022-11-14T18:17:18.096Z,96344.53
2022-11-14T18:19:44.563Z,96358.66
2022-11-14T18:22:10.980Z,96350.47
2022-11-14T18:24:37.518Z,96334.53
2022-11-14T18:27:04.094Z,96342.69
2022-11-14T18:29:31.222Z,96331.34
2022-11-14T18:31:57.760Z,96309.81
2022-11-14T18:34:24.238Z,96310.78
2022-11-14T18:36:53.093Z,96289.22
2022-11-14T18:39:19.695Z,96295.91
2022-11-14T18:41:47.069Z,96296.53
2022-11-14T18:44:14.327Z,96280.88
2022-11-14T18:46:40.933Z,96291.81
2022-11-14T18:49:07.423Z,96280.88
2022-11-14T18:51:41.988Z,96285.56
2022-11-14T18:54:12.801Z,96287.00
2022-11-14T18:56:39.379Z,96257.28
2022-11-14T18:59:06.135Z,96272.31
2022-11-14T19:01:35.142Z,96255.59
2022-11-14T19:04:03.329Z,96251.72
2022-11-14T19:06:30.918Z,96258.38
2022-11-14T19:08:59.949Z,96244.75
2022-11-14T19:11:45.259Z,96237.75
2022-11-14T19:14:12.039Z,96228.06
2022-11-14T19:16:38.759Z,96206.34
2022-11-14T19:19:06.134Z,96225.22
2022-11-14T19:21:32.957Z,96214.59
2022-11-14T19:24:02.227Z,96209.63
2022-11-14T19:26:29.277Z,96220.56
2022-11-14T19:28:55.770Z,96206.63
2022-11-14T19:31:23.005Z,96216.03
2022-11-14T19:33:49.448Z,96216.31
2022-11-14T19:36:27.833Z,96202.28
2022-11-14T19:39:04.076Z,96219.56
2022-11-14T19:41:32.014Z,96212.47
2022-11-14T19:44:01.321Z,96199.72
2022-11-14T19:46:29.373Z,96205.69
2022-11-14T19:48:57.201Z,96196.41
2022-11-14T19:51:24.570Z,96202.66
2022-11-14T19:53:53.358Z,96206.81
2022-11-14T19:56:20.182Z,96203.56
2022-11-14T19:58:47.667Z,96211.63
2022-11-14T20:01:15.704Z,96197.63
2022-11-14T20:03:42.187Z,96192.66
2022-11-14T20:06:23.396Z,96195.50
2022-11-14T20:08:50.634Z,96162.31
2022-11-14T20:11:17.642Z,96174.81
2022-11-14T20:13:44.264Z,96191.25
2022-11-14T20:16:20.467Z,96181.91
2022-11-14T20:18:57.469Z,96195.78
2022-11-14T20:21:26.097Z,96192.38
2022-11-14T20:23:53.659Z,96174.81
2022-11-14T23:10:26.177Z,96119.16
2022-11-14T23:12:52.930Z,96141.47
2022-11-14T23:17:45.019Z,96130.00
2022-11-14T23:20:16.292Z,96140.78
2022-11-14T23:22:43.489Z,96142.31
2022-11-14T23:25:10.166Z,96167.50
2022-11-14T23:27:36.890Z,96174.16
2022-11-14T23:30:04.356Z,96162.28
2022-11-14T23:32:31.117Z,96178.41
2022-11-14T23:34:57.765Z,96176.41
2022-11-14T23:37:25.248Z,96158.81
2022-11-14T23:39:51.875Z,96171.03
2022-11-14T23:42:18.952Z,96175.53
2022-11-14T23:44:45.666Z,96163.59
2022-11-14T23:47:12.534Z,96197.53
2022-11-14T23:49:39.277Z,96195.47
2022-11-14T23:52:05.883Z,96189.56
2022-11-14T23:54:32.514Z,96200.84
2022-11-14T23:57:04.199Z,96202.81
2022-11-14T23:59:31.492Z,96196.50
